sensor_id;sensor_type;location;lat;lon;timestamp;P1;durP1;ratioP1;P2;durP2;ratioP2
5823;SDS011;2938;52.254;12.988;2023-03-24T00:02:07;6.95;;;2.60;;
5823;SDS011;2938;52.254;12.988;2023-03-24T00:04:33;6.15;;;3.53;;
5823;SDS011;2938;52.254;12.988;2023-03-24T00:10:05;6.05;;;3.90;;
5823;SDS011;2938;52.254;12.988;2023-03-24T00:15:13;5.57;;;3.63;;
5823;SDS011;2938;52.254;12.988;2023-03-24T00:17:48;5.40;;;4.20;;
5823;SDS011;2938;52.254;12.988;2023-03-24T00:20:24;5.22;;;3.58;;
5823;SDS011;2938;52.254;12.988;2023-03-24T00:26:00;6.35;;;3.72;;
5823;SDS011;2938;52.254;12.988;2023-03-24T00:28:54;5.75;;;3.90;;
5823;SDS011;2938;52.254;12.988;2023-03-24T00:31:43;5.30;;;3.75;;
5823;SDS011;2938;52.254;12.988;2023-03-24T00:37:15;3.78;;;3.15;;
5823;SDS011;2938;52.254;12.988;2023-03-24T00:42:57;5.07;;;4.38;;
5823;SDS011;2938;52.254;12.988;2023-03-24T00:45:44;3.90;;;3.05;;
5823;SDS011;2938;52.254;12.988;2023-03-24T00:48:22;4.50;;;3.38;;
5823;SDS011;2938;52.254;12.988;2023-03-24T00:50:59;3.88;;;3.15;;
5823;SDS011;2938;52.254;12.988;2023-03-24T00:56:36;5.57;;;3.20;;
5823;SDS011;2938;52.254;12.988;2023-03-24T00:59:34;3.67;;;3.13;;
5823;SDS011;2938;52.254;12.988;2023-03-24T01:02:09;5.93;;;3.58;;
5823;SDS011;2938;52.254;12.988;2023-03-24T01:04:52;3.45;;;2.83;;
5823;SDS011;2938;52.254;12.988;2023-03-24T01:07:45;6.75;;;3.50;;
5823;SDS011;2938;52.254;12.988;2023-03-24T01:10:24;7.30;;;3.60;;
5823;SDS011;2938;52.254;12.988;2023-03-24T01:12:59;3.40;;;2.72;;
5823;SDS011;2938;52.254;12.988;2023-03-24T01:15:29;3.40;;;2.95;;
5823;SDS011;2938;52.254;12.988;2023-03-24T01:18:00;3.50;;;3.15;;
5823;SDS011;2938;52.254;12.988;2023-03-24T01:20:29;3.38;;;3.08;;
5823;SDS011;2938;52.254;12.988;2023-03-24T01:23:06;4.15;;;3.75;;
5823;SDS011;2938;52.254;12.988;2023-03-24T01:28:30;5.22;;;3.35;;
5823;SDS011;2938;52.254;12.988;2023-03-24T01:31:07;8.15;;;4.00;;
5823;SDS011;2938;52.254;12.988;2023-03-24T01:36:45;5.32;;;2.88;;
5823;SDS011;2938;52.254;12.988;2023-03-24T01:39:18;4.82;;;3.78;;
5823;SDS011;2938;52.254;12.988;2023-03-24T01:41:54;3.95;;;3.53;;
5823;SDS011;2938;52.254;12.988;2023-03-24T01:48:00;7.03;;;4.32;;
5823;SDS011;2938;52.254;12.988;2023-03-24T01:50:36;7.03;;;3.38;;
5823;SDS011;2938;52.254;12.988;2023-03-24T01:53:11;3.30;;;2.80;;
5823;SDS011;2938;52.254;12.988;2023-03-24T01:59:09;3.72;;;3.17;;
5823;SDS011;2938;52.254;12.988;2023-03-24T02:01:44;4.45;;;3.90;;
5823;SDS011;2938;52.254;12.988;2023-03-24T02:04:21;10.07;;;3.80;;
5823;SDS011;2938;52.254;12.988;2023-03-24T02:18:59;4.32;;;3.03;;
5823;SDS011;2938;52.254;12.988;2023-03-24T02:50:36;3.70;;;3.33;;
5823;SDS011;2938;52.254;12.988;2023-03-24T02:53:06;4.75;;;3.47;;
5823;SDS011;2938;52.254;12.988;2023-03-24T02:55:40;4.53;;;3.65;;
5823;SDS011;2938;52.254;12.988;2023-03-24T02:58:13;4.65;;;4.18;;
5823;SDS011;2938;52.254;12.988;2023-03-24T03:00:55;9.07;;;4.47;;
5823;SDS011;2938;52.254;12.988;2023-03-24T03:03:30;4.50;;;3.88;;
5823;SDS011;2938;52.254;12.988;2023-03-24T03:06:08;6.85;;;4.25;;
5823;SDS011;2938;52.254;12.988;2023-03-24T03:08:40;7.60;;;4.32;;
5823;SDS011;2938;52.254;12.988;2023-03-24T03:11:06;4.93;;;4.20;;
5823;SDS011;2938;52.254;12.988;2023-03-24T03:13:37;5.68;;;4.40;;
5823;SDS011;2938;52.254;12.988;2023-03-24T03:16:05;4.40;;;4.00;;
5823;SDS011;2938;52.254;12.988;2023-03-24T03:18:38;7.20;;;3.90;;
5823;SDS011;2938;52.254;12.988;2023-03-24T03:21:11;7.18;;;5.15;;
5823;SDS011;2938;52.254;12.988;2023-03-24T03:23:42;8.85;;;4.95;;
5823;SDS011;2938;52.254;12.988;2023-03-24T03:26:14;5.95;;;5.13;;
5823;SDS011;2938;52.254;12.988;2023-03-24T03:28:42;5.35;;;4.53;;
5823;SDS011;2938;52.254;12.988;2023-03-24T03:31:14;6.50;;;5.07;;
5823;SDS011;2938;52.254;12.988;2023-03-24T03:33:42;8.70;;;4.45;;
5823;SDS011;2938;52.254;12.988;2023-03-24T03:36:17;6.63;;;5.22;;
5823;SDS011;2938;52.254;12.988;2023-03-24T03:41:35;6.70;;;4.75;;
5823;SDS011;2938;52.254;12.988;2023-03-24T03:44:01;5.80;;;5.20;;
5823;SDS011;2938;52.254;12.988;2023-03-24T03:46:26;6.13;;;5.50;;
5823;SDS011;2938;52.254;12.988;2023-03-24T03:48:52;11.10;;;5.82;;
5823;SDS011;2938;52.254;12.988;2023-03-24T03:51:17;7.93;;;5.00;;
5823;SDS011;2938;52.254;12.988;2023-03-24T03:56:17;8.10;;;5.78;;
5823;SDS011;2938;52.254;12.988;2023-03-24T03:58:45;11.48;;;5.63;;
5823;SDS011;2938;52.254;12.988;2023-03-24T04:01:14;8.25;;;6.47;;
5823;SDS011;2938;52.254;12.988;2023-03-24T04:03:49;9.25;;;6.43;;
5823;SDS011;2938;52.254;12.988;2023-03-24T04:08:56;8.90;;;5.57;;
5823;SDS011;2938;52.254;12.988;2023-03-24T04:11:30;10.20;;;6.18;;
5823;SDS011;2938;52.254;12.988;2023-03-24T04:28:41;13.40;;;6.82;;
5823;SDS011;2938;52.254;12.988;2023-03-24T04:31:34;8.45;;;6.32;;
5823;SDS011;2938;52.254;12.988;2023-03-24T04:34:06;7.00;;;6.03;;
5823;SDS011;2938;52.254;12.988;2023-03-24T04:37:08;8.50;;;7.27;;
5823;SDS011;2938;52.254;12.988;2023-03-24T04:39:40;10.23;;;6.72;;
5823;SDS011;2938;52.254;12.988;2023-03-24T04:42:08;11.63;;;6.75;;
5823;SDS011;2938;52.254;12.988;2023-03-24T04:44:36;10.48;;;7.18;;
5823;SDS011;2938;52.254;12.988;2023-03-24T04:50:25;14.15;;;6.22;;
5823;SDS011;2938;52.254;12.988;2023-03-24T04:53:01;9.38;;;6.65;;
5823;SDS011;2938;52.254;12.988;2023-03-24T05:05:05;11.07;;;6.45;;
5823;SDS011;2938;52.254;12.988;2023-03-24T05:07:30;9.77;;;7.57;;
5823;SDS011;2938;52.254;12.988;2023-03-24T05:10:14;12.25;;;6.50;;
5823;SDS011;2938;52.254;12.988;2023-03-24T05:12:55;9.98;;;6.38;;
5823;SDS011;2938;52.254;12.988;2023-03-24T05:15:30;9.57;;;5.85;;
5823;SDS011;2938;52.254;12.988;2023-03-24T05:18:02;9.05;;;6.88;;
5823;SDS011;2938;52.254;12.988;2023-03-24T05:21:04;13.98;;;7.68;;
5823;SDS011;2938;52.254;12.988;2023-03-24T05:27:00;8.57;;;5.60;;
5823;SDS011;2938;52.254;12.988;2023-03-24T05:29:28;7.72;;;6.22;;
5823;SDS011;2938;52.254;12.988;2023-03-24T05:31:59;9.65;;;6.50;;
5823;SDS011;2938;52.254;12.988;2023-03-24T05:34:24;7.97;;;6.40;;
5823;SDS011;2938;52.254;12.988;2023-03-24T05:39:51;8.25;;;6.13;;
5823;SDS011;2938;52.254;12.988;2023-03-24T05:42:52;6.47;;;5.38;;
5823;SDS011;2938;52.254;12.988;2023-03-24T05:45:17;7.68;;;6.55;;
5823;SDS011;2938;52.254;12.988;2023-03-24T05:47:49;6.68;;;5.32;;
5823;SDS011;2938;52.254;12.988;2023-03-24T05:50:17;8.90;;;6.38;;
5823;SDS011;2938;52.254;12.988;2023-03-24T05:52:49;9.13;;;5.60;;
5823;SDS011;2938;52.254;12.988;2023-03-24T06:01:44;9.00;;;5.72;;
5823;SDS011;2938;52.254;12.988;2023-03-24T06:04:14;9.55;;;6.38;;
5823;SDS011;2938;52.254;12.988;2023-03-24T06:06:46;9.60;;;5.97;;
5823;SDS011;2938;52.254;12.988;2023-03-24T06:12:57;6.70;;;5.10;;
5823;SDS011;2938;52.254;12.988;2023-03-24T06:22:34;7.45;;;5.30;;
5823;SDS011;2938;52.254;12.988;2023-03-24T06:25:43;11.70;;;6.78;;
5823;SDS011;2938;52.254;12.988;2023-03-24T06:39:53;11.80;;;6.55;;
5823;SDS011;2938;52.254;12.988;2023-03-24T06:42:19;10.90;;;6.07;;
5823;SDS011;2938;52.254;12.988;2023-03-24T06:47:54;8.70;;;5.72;;
5823;SDS011;2938;52.254;12.988;2023-03-24T06:55:03;14.00;;;6.97;;
5823;SDS011;2938;52.254;12.988;2023-03-24T07:04:39;7.55;;;5.90;;
5823;SDS011;2938;52.254;12.988;2023-03-24T07:16:35;7.55;;;5.88;;
5823;SDS011;2938;52.254;12.988;2023-03-24T07:19:18;6.55;;;4.93;;
5823;SDS011;2938;52.254;12.988;2023-03-24T07:21:49;17.00;;;4.78;;
5823;SDS011;2938;52.254;12.988;2023-03-24T07:30:52;7.45;;;5.97;;
5823;SDS011;2938;52.254;12.988;2023-03-24T07:33:37;8.40;;;5.53;;
5823;SDS011;2938;52.254;12.988;2023-03-24T07:36:11;11.05;;;5.55;;
5823;SDS011;2938;52.254;12.988;2023-03-24T07:38:37;8.05;;;5.60;;
5823;SDS011;2938;52.254;12.988;2023-03-24T07:41:10;12.20;;;5.53;;
5823;SDS011;2938;52.254;12.988;2023-03-24T07:43:45;7.50;;;5.53;;
5823;SDS011;2938;52.254;12.988;2023-03-24T07:46:32;9.40;;;5.78;;
5823;SDS011;2938;52.254;12.988;2023-03-24T07:48:57;7.57;;;5.43;;
5823;SDS011;2938;52.254;12.988;2023-03-24T07:51:26;6.00;;;4.70;;
5823;SDS011;2938;52.254;12.988;2023-03-24T07:54:05;10.18;;;5.60;;
5823;SDS011;2938;52.254;12.988;2023-03-24T07:56:30;9.00;;;6.28;;
5823;SDS011;2938;52.254;12.988;2023-03-24T07:58:58;6.70;;;5.90;;
5823;SDS011;2938;52.254;12.988;2023-03-24T08:01:27;8.68;;;5.72;;
5823;SDS011;2938;52.254;12.988;2023-03-24T08:10:40;11.35;;;5.45;;
5823;SDS011;2938;52.254;12.988;2023-03-24T08:14:27;8.10;;;6.80;;
5823;SDS011;2938;52.254;12.988;2023-03-24T08:17:28;15.57;;;5.93;;
5823;SDS011;2938;52.254;12.988;2023-03-24T08:20:20;9.98;;;5.55;;
5823;SDS011;2938;52.254;12.988;2023-03-24T08:22:50;10.40;;;6.60;;
5823;SDS011;2938;52.254;12.988;2023-03-24T08:31:33;8.32;;;5.65;;
5823;SDS011;2938;52.254;12.988;2023-03-24T08:34:03;13.15;;;6.50;;
5823;SDS011;2938;52.254;12.988;2023-03-24T08:37:14;5.70;;;5.10;;
5823;SDS011;2938;52.254;12.988;2023-03-24T08:39:54;15.52;;;6.00;;
5823;SDS011;2938;52.254;12.988;2023-03-24T08:42:57;10.20;;;5.37;;
5823;SDS011;2938;52.254;12.988;2023-03-24T08:45:46;9.82;;;6.03;;
5823;SDS011;2938;52.254;12.988;2023-03-24T08:48:17;6.55;;;5.22;;
5823;SDS011;2938;52.254;12.988;2023-03-24T08:50:48;8.67;;;5.23;;
5823;SDS011;2938;52.254;12.988;2023-03-24T08:53:23;7.43;;;5.30;;
5823;SDS011;2938;52.254;12.988;2023-03-24T08:56:16;10.27;;;5.63;;
5823;SDS011;2938;52.254;12.988;2023-03-24T08:58:54;9.20;;;5.00;;
5823;SDS011;2938;52.254;12.988;2023-03-24T09:05:03;8.50;;;5.78;;
5823;SDS011;2938;52.254;12.988;2023-03-24T09:08:10;7.75;;;5.90;;
5823;SDS011;2938;52.254;12.988;2023-03-24T09:14:13;7.00;;;5.55;;
5823;SDS011;2938;52.254;12.988;2023-03-24T09:17:03;7.07;;;5.53;;
5823;SDS011;2938;52.254;12.988;2023-03-24T09:19:28;5.22;;;4.45;;
5823;SDS011;2938;52.254;12.988;2023-03-24T09:21:55;7.55;;;4.97;;
5823;SDS011;2938;52.254;12.988;2023-03-24T09:24:21;9.45;;;5.75;;
5823;SDS011;2938;52.254;12.988;2023-03-24T09:26:49;8.73;;;5.25;;
5823;SDS011;2938;52.254;12.988;2023-03-24T09:29:17;5.95;;;4.60;;
5823;SDS011;2938;52.254;12.988;2023-03-24T09:31:56;5.32;;;4.28;;
5823;SDS011;2938;52.254;12.988;2023-03-24T09:37:37;4.95;;;4.40;;
5823;SDS011;2938;52.254;12.988;2023-03-24T09:52:46;3.88;;;3.47;;
5823;SDS011;2938;52.254;12.988;2023-03-24T09:55:42;4.53;;;3.28;;
5823;SDS011;2938;52.254;12.988;2023-03-24T10:02:53;4.18;;;3.50;;
5823;SDS011;2938;52.254;12.988;2023-03-24T10:31:45;3.38;;;2.03;;
5823;SDS011;2938;52.254;12.988;2023-03-24T10:38:22;3.08;;;1.48;;
5823;SDS011;2938;52.254;12.988;2023-03-24T10:40:50;3.08;;;2.05;;
5823;SDS011;2938;52.254;12.988;2023-03-24T10:43:19;2.23;;;1.80;;
5823;SDS011;2938;52.254;12.988;2023-03-24T10:45:55;1.27;;;1.17;;
5823;SDS011;2938;52.254;12.988;2023-03-24T10:55:31;3.90;;;2.67;;
5823;SDS011;2938;52.254;12.988;2023-03-24T11:11:42;5.55;;;3.30;;
5823;SDS011;2938;52.254;12.988;2023-03-24T11:18:05;4.53;;;2.63;;
5823;SDS011;2938;52.254;12.988;2023-03-24T11:24:37;3.65;;;2.53;;
5823;SDS011;2938;52.254;12.988;2023-03-24T11:27:05;7.80;;;3.53;;
5823;SDS011;2938;52.254;12.988;2023-03-24T11:29:37;4.47;;;3.35;;
5823;SDS011;2938;52.254;12.988;2023-03-24T11:32:15;4.82;;;2.58;;
5823;SDS011;2938;52.254;12.988;2023-03-24T11:35:32;2.63;;;2.42;;
5823;SDS011;2938;52.254;12.988;2023-03-24T11:38:02;3.42;;;2.90;;
5823;SDS011;2938;52.254;12.988;2023-03-24T11:40:31;5.57;;;3.10;;
5823;SDS011;2938;52.254;12.988;2023-03-24T11:43:31;4.55;;;2.58;;
5823;SDS011;2938;52.254;12.988;2023-03-24T11:46:13;4.47;;;2.88;;
5823;SDS011;2938;52.254;12.988;2023-03-24T11:49:09;4.53;;;2.87;;
5823;SDS011;2938;52.254;12.988;2023-03-24T11:51:40;3.75;;;2.72;;
5823;SDS011;2938;52.254;12.988;2023-03-24T11:54:41;3.97;;;3.17;;
5823;SDS011;2938;52.254;12.988;2023-03-24T12:10:23;4.25;;;2.35;;
5823;SDS011;2938;52.254;12.988;2023-03-24T12:35:38;3.85;;;2.17;;
5823;SDS011;2938;52.254;12.988;2023-03-24T12:49:48;2.60;;;2.35;;
5823;SDS011;2938;52.254;12.988;2023-03-24T12:53:06;7.45;;;3.22;;
5823;SDS011;2938;52.254;12.988;2023-03-24T12:58:58;3.03;;;2.10;;
5823;SDS011;2938;52.254;12.988;2023-03-24T13:01:42;3.88;;;2.25;;
5823;SDS011;2938;52.254;12.988;2023-03-24T13:06:55;5.25;;;2.38;;
5823;SDS011;2938;52.254;12.988;2023-03-24T13:09:55;5.20;;;2.38;;
5823;SDS011;2938;52.254;12.988;2023-03-24T13:15:40;2.22;;;2.03;;
5823;SDS011;2938;52.254;12.988;2023-03-24T13:21:20;8.32;;;3.63;;
5823;SDS011;2938;52.254;12.988;2023-03-24T13:24:07;4.50;;;1.80;;
5823;SDS011;2938;52.254;12.988;2023-03-24T13:33:00;2.25;;;1.60;;
5823;SDS011;2938;52.254;12.988;2023-03-24T13:38:39;3.40;;;1.92;;
5823;SDS011;2938;52.254;12.988;2023-03-24T13:41:16;4.10;;;2.10;;
5823;SDS011;2938;52.254;12.988;2023-03-24T13:43:56;5.60;;;2.50;;
5823;SDS011;2938;52.254;12.988;2023-03-24T13:52:33;2.50;;;1.95;;
5823;SDS011;2938;52.254;12.988;2023-03-24T13:58:24;4.25;;;2.05;;
5823;SDS011;2938;52.254;12.988;2023-03-24T14:03:42;2.97;;;1.90;;
5823;SDS011;2938;52.254;12.988;2023-03-24T14:06:45;6.18;;;2.78;;
5823;SDS011;2938;52.254;12.988;2023-03-24T14:15:55;3.00;;;1.63;;
5823;SDS011;2938;52.254;12.988;2023-03-24T14:20:59;9.27;;;2.15;;
5823;SDS011;2938;52.254;12.988;2023-03-24T14:26:59;4.63;;;2.17;;
5823;SDS011;2938;52.254;12.988;2023-03-24T14:29:57;4.32;;;1.85;;
5823;SDS011;2938;52.254;12.988;2023-03-24T14:33:03;3.40;;;1.95;;
5823;SDS011;2938;52.254;12.988;2023-03-24T14:35:57;4.13;;;1.63;;
5823;SDS011;2938;52.254;12.988;2023-03-24T14:41:28;4.88;;;2.00;;
5823;SDS011;2938;52.254;12.988;2023-03-24T14:44:08;5.47;;;2.00;;
5823;SDS011;2938;52.254;12.988;2023-03-24T14:46:35;8.57;;;2.00;;
5823;SDS011;2938;52.254;12.988;2023-03-24T14:49:14;7.70;;;2.50;;
5823;SDS011;2938;52.254;12.988;2023-03-24T14:51:55;7.03;;;2.33;;
5823;SDS011;2938;52.254;12.988;2023-03-24T14:55:47;3.75;;;2.55;;
5823;SDS011;2938;52.254;12.988;2023-03-24T14:58:32;7.28;;;2.78;;
5823;SDS011;2938;52.254;12.988;2023-03-24T15:01:01;2.78;;;1.98;;
5823;SDS011;2938;52.254;12.988;2023-03-24T15:06:54;5.38;;;2.83;;
5823;SDS011;2938;52.254;12.988;2023-03-24T15:09:25;6.00;;;2.97;;
5823;SDS011;2938;52.254;12.988;2023-03-24T15:11:57;3.63;;;2.75;;
5823;SDS011;2938;52.254;12.988;2023-03-24T15:14:41;4.80;;;2.30;;
5823;SDS011;2938;52.254;12.988;2023-03-24T15:17:15;5.38;;;2.35;;
5823;SDS011;2938;52.254;12.988;2023-03-24T15:19:53;3.35;;;2.10;;
5823;SDS011;2938;52.254;12.988;2023-03-24T15:22:21;6.85;;;2.75;;
5823;SDS011;2938;52.254;12.988;2023-03-24T15:24:49;9.98;;;2.85;;
5823;SDS011;2938;52.254;12.988;2023-03-24T15:29:54;3.25;;;2.30;;
5823;SDS011;2938;52.254;12.988;2023-03-24T15:35:15;10.23;;;2.88;;
5823;SDS011;2938;52.254;12.988;2023-03-24T15:37:42;5.57;;;2.40;;
5823;SDS011;2938;52.254;12.988;2023-03-24T15:43:06;4.88;;;2.50;;
5823;SDS011;2938;52.254;12.988;2023-03-24T15:45:48;3.80;;;2.92;;
5823;SDS011;2938;52.254;12.988;2023-03-24T15:48:19;3.72;;;2.55;;
5823;SDS011;2938;52.254;12.988;2023-03-24T15:56:28;4.45;;;2.78;;
5823;SDS011;2938;52.254;12.988;2023-03-24T16:01:55;5.15;;;2.63;;
5823;SDS011;2938;52.254;12.988;2023-03-24T16:04:22;7.93;;;3.17;;
5823;SDS011;2938;52.254;12.988;2023-03-24T16:06:51;4.28;;;2.80;;
5823;SDS011;2938;52.254;12.988;2023-03-24T16:09:18;7.35;;;3.13;;
5823;SDS011;2938;52.254;12.988;2023-03-24T16:11:58;8.18;;;2.95;;
5823;SDS011;2938;52.254;12.988;2023-03-24T16:17:29;10.75;;;3.30;;
5823;SDS011;2938;52.254;12.988;2023-03-24T16:20:01;3.40;;;2.13;;
5823;SDS011;2938;52.254;12.988;2023-03-24T16:22:32;9.48;;;3.42;;
5823;SDS011;2938;52.254;12.988;2023-03-24T16:25:05;6.00;;;3.22;;
5823;SDS011;2938;52.254;12.988;2023-03-24T16:27:43;4.32;;;3.47;;
5823;SDS011;2938;52.254;12.988;2023-03-24T16:30:12;7.45;;;2.78;;
5823;SDS011;2938;52.254;12.988;2023-03-24T16:32:42;3.33;;;2.88;;
5823;SDS011;2938;52.254;12.988;2023-03-24T16:35:08;12.95;;;3.58;;
5823;SDS011;2938;52.254;12.988;2023-03-24T16:37:56;3.53;;;2.85;;
5823;SDS011;2938;52.254;12.988;2023-03-24T16:40:49;7.55;;;3.28;;
5823;SDS011;2938;52.254;12.988;2023-03-24T16:43:18;5.20;;;2.90;;
5823;SDS011;2938;52.254;12.988;2023-03-24T16:45:46;4.70;;;3.03;;
5823;SDS011;2938;52.254;12.988;2023-03-24T16:48:27;6.13;;;3.03;;
5823;SDS011;2938;52.254;12.988;2023-03-24T16:50:52;10.20;;;3.33;;
5823;SDS011;2938;52.254;12.988;2023-03-24T16:53:42;5.72;;;2.75;;
5823;SDS011;2938;52.254;12.988;2023-03-24T16:56:08;5.68;;;3.17;;
5823;SDS011;2938;52.254;12.988;2023-03-24T16:59:00;7.65;;;3.72;;
5823;SDS011;2938;52.254;12.988;2023-03-24T17:01:43;10.90;;;3.60;;
5823;SDS011;2938;52.254;12.988;2023-03-24T17:04:41;5.18;;;2.50;;
5823;SDS011;2938;52.254;12.988;2023-03-24T17:07:17;4.97;;;2.47;;
5823;SDS011;2938;52.254;12.988;2023-03-24T17:09:49;9.27;;;3.55;;
5823;SDS011;2938;52.254;12.988;2023-03-24T17:12:43;8.75;;;3.70;;
5823;SDS011;2938;52.254;12.988;2023-03-24T17:15:52;12.57;;;3.97;;
5823;SDS011;2938;52.254;12.988;2023-03-24T17:18:17;7.70;;;3.38;;
5823;SDS011;2938;52.254;12.988;2023-03-24T17:20:48;8.17;;;4.00;;
5823;SDS011;2938;52.254;12.988;2023-03-24T17:23:31;4.90;;;3.00;;
5823;SDS011;2938;52.254;12.988;2023-03-24T17:26:01;4.80;;;4.03;;
5823;SDS011;2938;52.254;12.988;2023-03-24T17:28:35;9.18;;;4.10;;
5823;SDS011;2938;52.254;12.988;2023-03-24T17:31:17;6.20;;;3.72;;
5823;SDS011;2938;52.254;12.988;2023-03-24T17:37:06;8.95;;;5.03;;
5823;SDS011;2938;52.254;12.988;2023-03-24T17:39:31;12.68;;;4.45;;
5823;SDS011;2938;52.254;12.988;2023-03-24T17:42:06;9.93;;;4.18;;
5823;SDS011;2938;52.254;12.988;2023-03-24T17:44:31;20.08;;;6.47;;
5823;SDS011;2938;52.254;12.988;2023-03-24T17:46:56;15.27;;;6.30;;
5823;SDS011;2938;52.254;12.988;2023-03-24T17:49:31;7.43;;;5.50;;
5823;SDS011;2938;52.254;12.988;2023-03-24T17:52:23;9.52;;;5.60;;
5823;SDS011;2938;52.254;12.988;2023-03-24T17:55:01;10.00;;;5.40;;
5823;SDS011;2938;52.254;12.988;2023-03-24T17:57:47;8.10;;;5.82;;
5823;SDS011;2938;52.254;12.988;2023-03-24T18:00:15;8.30;;;5.93;;
5823;SDS011;2938;52.254;12.988;2023-03-24T18:02:43;9.38;;;5.20;;
5823;SDS011;2938;52.254;12.988;2023-03-24T18:05:37;13.68;;;5.28;;
5823;SDS011;2938;52.254;12.988;2023-03-24T18:08:03;15.80;;;5.20;;
5823;SDS011;2938;52.254;12.988;2023-03-24T18:11:00;13.18;;;5.18;;
5823;SDS011;2938;52.254;12.988;2023-03-24T18:13:27;10.85;;;4.13;;
5823;SDS011;2938;52.254;12.988;2023-03-24T18:15:52;7.97;;;4.50;;
5823;SDS011;2938;52.254;12.988;2023-03-24T18:18:18;5.38;;;3.78;;
5823;SDS011;2938;52.254;12.988;2023-03-24T18:20:43;17.65;;;5.53;;
5823;SDS011;2938;52.254;12.988;2023-03-24T18:23:08;9.85;;;4.53;;
5823;SDS011;2938;52.254;12.988;2023-03-24T18:25:34;9.95;;;4.13;;
5823;SDS011;2938;52.254;12.988;2023-03-24T18:27:59;11.52;;;4.93;;
5823;SDS011;2938;52.254;12.988;2023-03-24T18:30:24;5.93;;;3.45;;
5823;SDS011;2938;52.254;12.988;2023-03-24T18:32:49;7.97;;;4.18;;
5823;SDS011;2938;52.254;12.988;2023-03-24T18:35:15;8.10;;;4.35;;
5823;SDS011;2938;52.254;12.988;2023-03-24T18:37:40;11.50;;;4.40;;
5823;SDS011;2938;52.254;12.988;2023-03-24T18:40:06;15.27;;;5.57;;
5823;SDS011;2938;52.254;12.988;2023-03-24T18:42:32;11.70;;;5.22;;
5823;SDS011;2938;52.254;12.988;2023-03-24T18:45:01;7.53;;;4.22;;
5823;SDS011;2938;52.254;12.988;2023-03-24T18:47:27;18.92;;;5.93;;
5823;SDS011;2938;52.254;12.988;2023-03-24T18:49:53;11.45;;;5.93;;
5823;SDS011;2938;52.254;12.988;2023-03-24T18:52:18;12.30;;;5.70;;
5823;SDS011;2938;52.254;12.988;2023-03-24T18:54:44;11.57;;;5.43;;
5823;SDS011;2938;52.254;12.988;2023-03-24T18:57:09;12.32;;;5.35;;
5823;SDS011;2938;52.254;12.988;2023-03-24T18:59:35;13.43;;;5.55;;
5823;SDS011;2938;52.254;12.988;2023-03-24T19:02:01;13.90;;;5.53;;
5823;SDS011;2938;52.254;12.988;2023-03-24T19:04:26;17.55;;;6.65;;
5823;SDS011;2938;52.254;12.988;2023-03-24T19:06:52;14.05;;;6.13;;
5823;SDS011;2938;52.254;12.988;2023-03-24T19:09:18;8.50;;;5.32;;
5823;SDS011;2938;52.254;12.988;2023-03-24T19:11:49;10.18;;;5.05;;
5823;SDS011;2938;52.254;12.988;2023-03-24T19:14:16;9.75;;;5.97;;
5823;SDS011;2938;52.254;12.988;2023-03-24T19:16:42;23.80;;;5.55;;
5823;SDS011;2938;52.254;12.988;2023-03-24T19:19:07;16.35;;;5.93;;
5823;SDS011;2938;52.254;12.988;2023-03-24T19:21:33;14.18;;;6.38;;
5823;SDS011;2938;52.254;12.988;2023-03-24T19:27:10;8.07;;;5.22;;
5823;SDS011;2938;52.254;12.988;2023-03-24T19:29:42;5.75;;;5.15;;
5823;SDS011;2938;52.254;12.988;2023-03-24T19:32:17;14.82;;;6.18;;
5823;SDS011;2938;52.254;12.988;2023-03-24T19:34:48;8.02;;;6.65;;
5823;SDS011;2938;52.254;12.988;2023-03-24T19:37:17;11.15;;;5.07;;
5823;SDS011;2938;52.254;12.988;2023-03-24T19:39:43;14.57;;;6.70;;
5823;SDS011;2938;52.254;12.988;2023-03-24T19:42:09;11.30;;;7.93;;
5823;SDS011;2938;52.254;12.988;2023-03-24T19:45:04;20.75;;;9.80;;
5823;SDS011;2938;52.254;12.988;2023-03-24T19:48:11;17.00;;;6.80;;
5823;SDS011;2938;52.254;12.988;2023-03-24T19:50:47;11.57;;;7.75;;
5823;SDS011;2938;52.254;12.988;2023-03-24T19:56:06;16.75;;;6.88;;
5823;SDS011;2938;52.254;12.988;2023-03-24T20:11:31;6.20;;;5.10;;
5823;SDS011;2938;52.254;12.988;2023-03-24T20:24:48;6.47;;;5.57;;
5823;SDS011;2938;52.254;12.988;2023-03-24T20:27:37;7.00;;;4.72;;
5823;SDS011;2938;52.254;12.988;2023-03-24T20:30:04;7.88;;;4.40;;
5823;SDS011;2938;52.254;12.988;2023-03-24T20:35:33;8.32;;;4.90;;
5823;SDS011;2938;52.254;12.988;2023-03-24T20:38:09;7.03;;;4.75;;
5823;SDS011;2938;52.254;12.988;2023-03-24T20:40:37;11.65;;;5.28;;
5823;SDS011;2938;52.254;12.988;2023-03-24T20:43:13;7.95;;;4.70;;
5823;SDS011;2938;52.254;12.988;2023-03-24T20:45:42;10.57;;;5.13;;
5823;SDS011;2938;52.254;12.988;2023-03-24T20:57:03;11.38;;;5.30;;
5823;SDS011;2938;52.254;12.988;2023-03-24T21:02:15;9.60;;;3.88;;
5823;SDS011;2938;52.254;12.988;2023-03-24T21:04:46;7.60;;;4.70;;
5823;SDS011;2938;52.254;12.988;2023-03-24T21:07:11;10.93;;;4.75;;
5823;SDS011;2938;52.254;12.988;2023-03-24T21:09:40;6.90;;;4.85;;
5823;SDS011;2938;52.254;12.988;2023-03-24T21:12:26;7.10;;;4.30;;
5823;SDS011;2938;52.254;12.988;2023-03-24T21:18:10;6.28;;;3.63;;
5823;SDS011;2938;52.254;12.988;2023-03-24T21:20:38;7.90;;;4.10;;
5823;SDS011;2938;52.254;12.988;2023-03-24T21:29:36;8.52;;;4.40;;
5823;SDS011;2938;52.254;12.988;2023-03-24T21:32:02;7.32;;;4.65;;
5823;SDS011;2938;52.254;12.988;2023-03-24T21:34:27;4.15;;;3.70;;
5823;SDS011;2938;52.254;12.988;2023-03-24T21:36:52;8.05;;;4.07;;
5823;SDS011;2938;52.254;12.988;2023-03-24T21:39:19;9.20;;;3.60;;
5823;SDS011;2938;52.254;12.988;2023-03-24T21:41:45;9.32;;;4.10;;
5823;SDS011;2938;52.254;12.988;2023-03-24T21:44:35;6.72;;;3.38;;
5823;SDS011;2938;52.254;12.988;2023-03-24T21:47:00;9.15;;;3.92;;
5823;SDS011;2938;52.254;12.988;2023-03-24T21:49:29;5.68;;;4.13;;
5823;SDS011;2938;52.254;12.988;2023-03-24T21:51:54;10.88;;;4.38;;
5823;SDS011;2938;52.254;12.988;2023-03-24T21:54:20;10.52;;;4.45;;
5823;SDS011;2938;52.254;12.988;2023-03-24T21:56:49;8.77;;;3.33;;
5823;SDS011;2938;52.254;12.988;2023-03-24T21:59:21;8.50;;;3.90;;
5823;SDS011;2938;52.254;12.988;2023-03-24T22:01:47;6.60;;;3.40;;
5823;SDS011;2938;52.254;12.988;2023-03-24T22:04:16;8.55;;;3.20;;
5823;SDS011;2938;52.254;12.988;2023-03-24T22:06:41;3.30;;;2.90;;
5823;SDS011;2938;52.254;12.988;2023-03-24T22:09:06;6.82;;;4.05;;
5823;SDS011;2938;52.254;12.988;2023-03-24T22:11:34;9.82;;;3.58;;
5823;SDS011;2938;52.254;12.988;2023-03-24T22:13:59;4.93;;;3.35;;
5823;SDS011;2938;52.254;12.988;2023-03-24T22:16:24;5.50;;;3.55;;
5823;SDS011;2938;52.254;12.988;2023-03-24T22:18:50;6.68;;;3.08;;
5823;SDS011;2938;52.254;12.988;2023-03-24T22:21:16;7.65;;;3.65;;
5823;SDS011;2938;52.254;12.988;2023-03-24T22:26:48;8.27;;;4.47;;
5823;SDS011;2938;52.254;12.988;2023-03-24T22:29:14;7.40;;;3.35;;
5823;SDS011;2938;52.254;12.988;2023-03-24T22:31:43;15.63;;;5.75;;
5823;SDS011;2938;52.254;12.988;2023-03-24T22:34:09;14.70;;;4.05;;
5823;SDS011;2938;52.254;12.988;2023-03-24T22:36:35;4.82;;;3.40;;
5823;SDS011;2938;52.254;12.988;2023-03-24T22:39:02;7.32;;;3.88;;
5823;SDS011;2938;52.254;12.988;2023-03-24T22:41:33;3.85;;;3.15;;
5823;SDS011;2938;52.254;12.988;2023-03-24T22:44:41;7.93;;;3.88;;
5823;SDS011;2938;52.254;12.988;2023-03-24T22:47:00;5.78;;;4.32;;
5823;SDS011;2938;52.254;12.988;2023-03-24T22:49:46;5.88;;;3.72;;
5823;SDS011;2938;52.254;12.988;2023-03-24T22:52:15;7.82;;;4.32;;
5823;SDS011;2938;52.254;12.988;2023-03-24T22:54:41;7.07;;;3.22;;
5823;SDS011;2938;52.254;12.988;2023-03-24T22:57:09;8.38;;;3.88;;
5823;SDS011;2938;52.254;12.988;2023-03-24T22:59:37;7.68;;;4.18;;
5823;SDS011;2938;52.254;12.988;2023-03-24T23:02:10;4.95;;;2.97;;
5823;SDS011;2938;52.254;12.988;2023-03-24T23:04:36;5.35;;;3.47;;
5823;SDS011;2938;52.254;12.988;2023-03-24T23:07:03;8.13;;;4.00;;
5823;SDS011;2938;52.254;12.988;2023-03-24T23:09:31;7.82;;;3.85;;
5823;SDS011;2938;52.254;12.988;2023-03-24T23:11:56;6.22;;;3.42;;
5823;SDS011;2938;52.254;12.988;2023-03-24T23:14:21;6.32;;;4.20;;
5823;SDS011;2938;52.254;12.988;2023-03-24T23:16:49;11.88;;;4.90;;